createdAt,value
2024-05-09T00:00:15.530Z,99238.77
2024-05-09T00:03:24.407Z,99235.33
2024-05-09T00:06:11.046Z,99236.33
2024-05-09T00:08:57.433Z,99230.63
2024-05-09T00:11:43.656Z,99223.04
2024-05-09T00:14:30.082Z,99222.88
2024-05-09T00:17:16.154Z,99220.81
2024-05-09T00:20:04.111Z,99219.84
2024-05-09T00:22:53.401Z,99219.65
2024-05-09T00:25:39.839Z,99220.27
2024-05-09T00:28:26.073Z,99223.95
2024-05-09T00:31:12.240Z,99218.29
2024-05-09T00:33:58.564Z,99218.17
2024-05-09T00:36:44.930Z,99222.20
2024-05-09T00:39:31.125Z,99220.04
2024-05-09T00:42:17.253Z,99222.88
2024-05-09T00:45:03.512Z,99219.96
2024-05-09T00:47:50.532Z,99220.20
2024-05-09T00:50:42.587Z,99217.09
2024-05-09T00:53:29.392Z,99218.38
2024-05-09T00:56:16.795Z,99222.86
2024-05-09T00:59:02.982Z,99223.32
2024-05-09T01:01:50.171Z,99226.41
2024-05-09T01:04:36.488Z,99227.13
2024-05-09T01:07:23.666Z,99227.02
2024-05-09T01:10:14.324Z,99224.18
2024-05-09T01:13:07.739Z,99230.57
2024-05-09T01:15:54.198Z,99230.28
2024-05-09T01:18:40.615Z,99236.10
2024-05-09T01:21:27.253Z,99237.02
2024-05-09T01:24:13.197Z,99237.58
2024-05-09T01:26:59.548Z,99236.73
2024-05-09T01:29:45.991Z,99240.50
2024-05-09T01:32:32.074Z,99240.61
2024-05-09T01:35:23.175Z,99241.23
2024-05-09T01:38:12.544Z,99242.00
2024-05-09T01:40:59.010Z,99237.21
2024-05-09T01:43:45.092Z,99235.92
2024-05-09T01:46:31.076Z,99237.22
2024-05-09T01:49:17.434Z,99239.38
2024-05-09T01:52:04.097Z,99236.60
2024-05-09T01:54:53.600Z,99238.60
2024-05-09T01:57:39.915Z,99243.14
2024-05-09T02:00:37.660Z,99239.63
2024-05-09T02:03:27.449Z,99238.92
2024-05-09T02:06:13.757Z,99239.26
2024-05-09T02:08:59.669Z,99244.84
2024-05-09T02:11:47.685Z,99246.94
2024-05-09T02:14:34.080Z,99248.13
2024-05-09T02:17:20.129Z,99249.98
2024-05-09T02:20:06.731Z,99243.61
2024-05-09T02:22:52.861Z,99242.20
2024-05-09T02:25:41.919Z,99246.08
2024-05-09T02:28:27.856Z,99245.70
2024-05-09T02:31:14.498Z,99249.71
2024-05-09T02:34:01.101Z,99247.22
2024-05-09T02:36:47.986Z,99244.33
2024-05-09T02:39:34.145Z,99234.84
2024-05-09T02:42:21.294Z,99236.70
2024-05-09T02:45:07.621Z,99234.12
2024-05-09T02:47:55.403Z,99234.27
2024-05-09T02:50:42.167Z,99236.15
2024-05-09T02:53:28.425Z,99236.13
2024-05-09T02:56:14.473Z,99232.27
2024-05-09T02:59:00.660Z,99234.31
2024-05-09T03:01:47.058Z,99236.85
2024-05-09T03:04:33.480Z,99237.08
2024-05-09T03:07:20.377Z,99236.73
2024-05-09T03:10:14.606Z,99239.21
2024-05-09T03:13:14.970Z,99241.71
2024-05-09T03:16:02.527Z,99241.75
2024-05-09T03:18:48.682Z,99241.79
2024-05-09T03:21:40.530Z,99243.40
2024-05-09T03:24:26.595Z,99244.20
2024-05-09T03:27:12.969Z,99244.95
2024-05-09T03:29:59.073Z,99242.30
2024-05-09T03:32:45.436Z,99241.16
2024-05-09T03:35:31.529Z,99244.18
2024-05-09T03:38:17.644Z,99242.09
2024-05-09T03:41:04.611Z,99239.88
2024-05-09T03:43:51.289Z,99244.31
2024-05-09T03:46:38.478Z,99244.19
2024-05-09T03:49:25.207Z,99239.20
2024-05-09T03:52:11.423Z,99242.19
2024-05-09T03:54:57.830Z,99243.35
2024-05-09T03:57:44.238Z,99244.43
2024-05-09T04:00:36.896Z,99246.10
2024-05-09T04:03:25.235Z,99251.52
2024-05-09T04:06:12.091Z,99251.73
2024-05-09T04:08:58.673Z,99252.23
2024-05-09T04:11:45.158Z,99253.17
2024-05-09T04:14:34.000Z,99252.08
2024-05-09T04:17:20.242Z,99255.91
2024-05-09T04:20:08.621Z,99257.60
2024-05-09T04:22:56.777Z,99263.67
2024-05-09T04:25:44.050Z,99264.50
2024-05-09T04:28:30.543Z,99263.89
2024-05-09T04:31:16.774Z,99264.36
2024-05-09T04:34:04.326Z,99264.64
2024-05-09T04:36:50.956Z,99269.99
2024-05-09T04:39:37.106Z,99269.50
2024-05-09T04:42:23.924Z,99270.12
2024-05-09T04:45:10.594Z,99272.87
2024-05-09T04:47:56.974Z,99270.66
2024-05-09T04:50:43.325Z,99271.98
2024-05-09T04:53:29.334Z,99270.26
2024-05-09T04:56:15.504Z,99270.45
2024-05-09T04:59:01.573Z,99270.30
2024-05-09T05:01:47.762Z,99275.89
2024-05-09T05:04:33.974Z,99277.86
2024-05-09T05:07:20.066Z,99278.56
2024-05-09T05:10:09.333Z,99270.10
2024-05-09T05:13:16.683Z,99273.48
2024-05-09T05:16:04.711Z,99277.32
2024-05-09T05:18:51.211Z,99274.92
2024-05-09T05:21:39.026Z,99281.55
2024-05-09T05:24:25.156Z,99281.59
2024-05-09T05:27:11.245Z,99286.63
2024-05-09T05:29:57.563Z,99293.10
2024-05-09T05:32:44.063Z,99293.55
2024-05-09T05:35:30.477Z,99296.41
2024-05-09T05:38:17.025Z,99292.75
2024-05-09T05:41:03.586Z,99289.02
2024-05-09T05:43:49.825Z,99287.95
2024-05-09T05:46:35.844Z,99289.27
2024-05-09T05:49:23.156Z,99288.09
2024-05-09T05:52:10.930Z,99289.46
2024-05-09T05:54:57.090Z,99287.77
2024-05-09T05:57:43.492Z,99286.73
2024-05-09T06:00:37.607Z,99289.66
2024-05-09T06:03:25.776Z,99291.58
2024-05-09T06:06:13.466Z,99288.64
2024-05-09T06:08:59.802Z,99292.07
2024-05-09T06:11:47.677Z,99289.56
2024-05-09T06:14:33.802Z,99288.17
2024-05-09T06:17:19.866Z,99291.08
2024-05-09T06:20:13.250Z,99289.64
2024-05-09T06:23:03.981Z,99286.48
2024-05-09T06:25:53.088Z,99288.09
2024-05-09T06:28:39.211Z,99289.86
2024-05-09T06:31:25.391Z,99290.61
2024-05-09T06:34:12.114Z,99285.66
2024-05-09T06:36:58.014Z,99288.70
2024-05-09T06:39:45.571Z,99285.48
2024-05-09T06:42:32.802Z,99282.83
2024-05-09T06:45:23.543Z,99283.08
2024-05-09T06:48:10.471Z,99279.14
2024-05-09T06:50:56.854Z,99278.46
2024-05-09T06:53:43.085Z,99279.55
2024-05-09T06:56:29.257Z,99282.79
2024-05-09T06:59:15.235Z,99282.69
2024-05-09T07:02:01.341Z,99282.91
2024-05-09T07:04:47.945Z,99280.90
2024-05-09T07:07:34.470Z,99280.60
2024-05-09T07:10:28.656Z,99277.89
2024-05-09T07:13:18.939Z,99276.02
2024-05-09T07:16:05.288Z,99276.42
2024-05-09T07:18:54.853Z,99270.24
2024-05-09T07:21:43.704Z,99271.48
2024-05-09T07:24:29.790Z,99271.99
2024-05-09T07:27:16.055Z,99277.38
2024-05-09T07:30:03.934Z,99277.22
2024-05-09T07:32:52.204Z,99273.21
2024-05-09T07:35:38.905Z,99274.78
2024-05-09T07:38:25.160Z,99275.99
2024-05-09T07:41:11.149Z,99276.67
2024-05-09T07:43:57.396Z,99275.45
2024-05-09T07:53:30.191Z,99274.36
2024-05-09T07:55:29.042Z,99271.38
2024-05-09T07:58:15.310Z,99265.98
2024-05-09T08:01:04.278Z,99261.11
2024-05-09T08:03:53.520Z,99257.94
2024-05-09T08:06:40.090Z,99262.23
2024-05-09T08:09:26.082Z,99261.50
2024-05-09T08:12:15.091Z,99264.60
2024-05-09T08:15:01.334Z,99266.86
2024-05-09T08:17:47.501Z,99268.06
2024-05-09T08:20:35.348Z,99268.40
2024-05-09T08:23:23.496Z,99263.14
2024-05-09T08:26:11.341Z,99263.90
2024-05-09T08:28:57.337Z,99262.80
2024-05-09T08:31:43.667Z,99261.23
2024-05-09T08:34:30.114Z,99260.13
2024-05-09T08:37:22.133Z,99258.34
2024-05-09T08:40:19.834Z,99265.73
2024-05-09T08:43:16.307Z,99269.04
2024-05-09T08:46:04.224Z,99271.20
2024-05-09T08:48:52.704Z,99272.75
2024-05-09T08:51:39.408Z,99266.95
2024-05-09T08:54:25.363Z,99265.72
2024-05-09T08:57:12.776Z,99264.86
2024-05-09T09:00:04.833Z,99265.95
2024-05-09T09:02:52.869Z,99265.70
2024-05-09T09:05:40.645Z,99263.58
2024-05-09T09:08:28.244Z,99263.84
2024-05-09T09:11:14.588Z,99268.44
2024-05-09T09:14:00.667Z,99273.59
2024-05-09T09:16:46.927Z,99268.98
2024-05-09T09:19:33.568Z,99267.35
2024-05-09T09:22:21.461Z,99268.98
2024-05-09T09:25:08.792Z,99265.75
2024-05-09T09:27:54.943Z,99266.90
2024-05-09T09:30:42.065Z,99260.67
2024-05-09T09:33:35.367Z,99254.30
2024-05-09T09:36:22.038Z,99257.30
2024-05-09T09:39:09.525Z,99259.89
2024-05-09T09:41:56.376Z,99259.17
2024-05-09T09:44:47.873Z,99256.05
2024-05-09T09:47:39.781Z,99257.91
2024-05-09T09:50:33.381Z,99256.83
2024-05-09T09:53:22.816Z,99256.59
2024-05-09T09:56:10.258Z,99250.70
2024-05-09T09:58:57.258Z,99253.84
2024-05-09T10:01:44.666Z,99251.29
2024-05-09T10:04:34.965Z,99250.13
2024-05-09T10:07:22.158Z,99249.17
2024-05-09T10:10:11.134Z,99252.27
2024-05-09T10:13:09.517Z,99251.02
2024-05-09T10:15:55.872Z,99244.98
2024-05-09T10:18:42.515Z,99247.66
2024-05-09T10:21:29.148Z,99239.86
2024-05-09T10:24:18.862Z,99240.86
2024-05-09T10:27:05.000Z,99239.42
2024-05-09T10:29:55.161Z,99237.95
2024-05-09T10:32:41.481Z,99238.77
2024-05-09T10:35:31.171Z,99241.31
2024-05-09T10:38:17.729Z,99241.86
2024-05-09T10:41:04.722Z,99240.34
2024-05-09T10:43:51.407Z,99232.68
2024-05-09T10:46:37.443Z,99232.26
2024-05-09T10:49:23.862Z,99230.95
2024-05-09T10:52:10.211Z,99231.42
2024-05-09T10:54:56.672Z,99225.48
2024-05-09T10:57:43.176Z,99222.48
2024-05-09T11:00:36.040Z,99220.30
2024-05-09T11:03:23.964Z,99216.26
2024-05-09T11:06:11.142Z,99218.28
2024-05-09T11:08:57.594Z,99218.80
2024-05-09T11:11:43.904Z,99213.00
2024-05-09T11:14:30.514Z,99212.65
2024-05-09T11:17:16.968Z,99206.77
2024-05-09T11:20:13.318Z,99205.88
2024-05-09T11:23:06.834Z,99203.72
2024-05-09T11:25:55.419Z,99204.17
2024-05-09T11:28:46.070Z,99202.46
2024-05-09T11:31:32.813Z,99204.32
2024-05-09T11:34:19.396Z,99205.19
2024-05-09T11:37:05.662Z,99199.63
2024-05-09T11:39:53.763Z,99200.78
2024-05-09T11:42:40.147Z,99197.20
2024-05-09T11:45:27.217Z,99192.95
2024-05-09T11:48:13.755Z,99192.71
2024-05-09T11:51:01.775Z,99192.59
2024-05-09T11:53:48.117Z,99193.92
2024-05-09T11:56:37.714Z,99193.34
2024-05-09T11:59:24.663Z,99190.61
2024-05-09T12:02:11.117Z,99192.55
2024-05-09T12:04:57.497Z,99191.27
2024-05-09T12:07:43.857Z,99189.68
2024-05-09T12:10:33.890Z,99190.98
2024-05-09T12:13:22.128Z,99188.09
2024-05-09T12:16:09.381Z,99182.91
2024-05-09T12:18:55.827Z,99180.81
2024-05-09T12:21:42.200Z,99178.54
2024-05-09T12:24:30.338Z,99176.75
2024-05-09T12:27:16.744Z,99174.64
2024-05-09T12:30:04.677Z,99169.14
2024-05-09T12:32:52.134Z,99168.17
2024-05-09T12:35:38.504Z,99168.96
2024-05-09T12:38:24.807Z,99161.59
2024-05-09T12:41:10.985Z,99162.39
2024-05-09T12:43:57.098Z,99160.27
2024-05-09T12:46:43.357Z,99160.00
2024-05-09T12:49:30.020Z,99151.27
2024-05-09T12:52:16.741Z,99147.31
2024-05-09T12:55:03.894Z,99141.87
2024-05-09T12:57:50.489Z,99143.60
2024-05-09T13:00:37.026Z,99138.77
2024-05-09T13:03:23.261Z,99133.50
2024-05-09T13:06:09.701Z,99133.45
2024-05-09T13:08:58.146Z,99128.07
2024-05-09T13:11:44.321Z,99127.11
2024-05-09T13:14:30.355Z,99130.11
2024-05-09T13:17:16.889Z,99125.36
2024-05-09T13:20:04.275Z,99129.18
2024-05-09T13:22:51.390Z,99126.98
2024-05-09T13:25:38.247Z,99128.61
2024-05-09T13:28:25.171Z,99133.73
2024-05-09T13:31:11.599Z,99126.83
2024-05-09T13:33:57.886Z,99124.63
2024-05-09T13:36:44.160Z,99119.83
2024-05-09T13:39:30.637Z,99117.16
2024-05-09T13:42:17.365Z,99111.97
2024-05-09T13:45:03.940Z,99111.98
2024-05-09T13:47:50.428Z,99111.26
2024-05-09T13:50:37.142Z,99109.91
2024-05-09T13:53:25.100Z,99107.23
2024-05-09T13:56:14.736Z,99106.40
2024-05-09T13:59:00.698Z,99104.02
2024-05-09T14:01:47.056Z,99101.44
2024-05-09T14:04:33.403Z,99100.10
2024-05-09T14:07:20.177Z,99098.39
2024-05-09T14:10:13.711Z,99092.85
2024-05-09T14:13:05.907Z,99092.02
2024-05-09T14:15:52.377Z,99087.61
2024-05-09T14:18:38.745Z,99091.08
2024-05-09T14:21:25.240Z,99088.66
2024-05-09T14:24:11.448Z,99087.52
2024-05-09T14:26:57.632Z,99088.46
2024-05-09T14:29:44.194Z,99089.30
2024-05-09T14:32:30.896Z,99091.56
2024-05-09T14:35:17.316Z,99091.88
2024-05-09T14:38:06.267Z,99090.91
2024-05-09T14:40:53.444Z,99087.63
2024-05-09T14:43:39.575Z,99082.70
2024-05-09T14:46:25.877Z,99079.29
2024-05-09T14:49:12.743Z,99075.84
2024-05-09T14:51:58.940Z,99075.70
2024-05-09T14:54:45.020Z,99072.89
2024-05-09T14:57:31.635Z,99070.85
2024-05-09T15:00:26.077Z,99072.55
2024-05-09T15:03:16.057Z,99069.60
2024-05-09T15:06:02.757Z,99073.63
2024-05-09T15:08:56.627Z,99068.38
2024-05-09T15:11:43.775Z,99071.23
2024-05-09T15:14:30.082Z,99071.39
2024-05-09T15:17:16.609Z,99070.09
2024-05-09T15:20:05.907Z,99064.54
2024-05-09T15:22:55.441Z,99065.17
2024-05-09T15:25:41.755Z,99061.38
2024-05-09T15:28:28.297Z,99057.00
2024-05-09T15:31:14.473Z,99056.00
2024-05-09T15:34:01.082Z,99049.73
2024-05-09T15:36:50.850Z,99050.40
2024-05-09T15:39:37.360Z,99050.23
2024-05-09T15:42:24.076Z,99051.19
2024-05-09T15:45:10.324Z,99048.36
2024-05-09T15:47:58.640Z,99046.38
2024-05-09T15:50:45.300Z,99042.77
2024-05-09T15:53:31.514Z,99041.30
2024-05-09T15:56:17.659Z,99047.48
2024-05-09T15:59:04.133Z,99044.45
2024-05-09T16:01:51.546Z,99043.05
2024-05-09T16:04:37.991Z,99043.58
2024-05-09T16:07:24.602Z,99041.83
2024-05-09T16:10:13.255Z,99039.65
2024-05-09T16:13:05.987Z,99039.66
2024-05-09T16:15:52.875Z,99037.01
2024-05-09T16:18:39.614Z,99039.01
2024-05-09T16:21:25.928Z,99039.33
2024-05-09T16:24:12.120Z,99039.23
2024-05-09T16:27:01.411Z,99036.59
2024-05-09T16:29:47.704Z,99035.05
2024-05-09T16:32:34.260Z,99034.73
2024-05-09T16:35:20.223Z,99033.04
2024-05-09T16:38:06.500Z,99035.18
2024-05-09T16:40:52.953Z,99032.31
2024-05-09T16:43:38.997Z,99031.39
2024-05-09T16:46:25.287Z,99031.09
2024-05-09T16:49:11.599Z,99027.84
2024-05-09T16:51:58.264Z,99029.63
2024-05-09T16:54:47.019Z,99035.77
2024-05-09T16:57:33.606Z,99031.85
2024-05-09T17:00:30.910Z,99031.09
2024-05-09T17:03:25.622Z,99034.33
2024-05-09T17:06:11.641Z,99032.53
2024-05-09T17:09:04.895Z,99029.99
2024-05-09T17:11:54.378Z,99029.89
2024-05-09T17:14:40.431Z,99030.80
2024-05-09T17:17:26.745Z,99031.36
2024-05-09T17:20:23.097Z,99030.75
2024-05-09T17:23:16.144Z,99028.23
2024-05-09T17:26:02.411Z,99027.63
2024-05-09T17:28:50.181Z,99029.77
2024-05-09T17:31:36.760Z,99031.77
2024-05-09T17:34:23.704Z,99029.11
2024-05-09T17:37:10.011Z,99032.27
2024-05-09T17:39:57.029Z,99032.15
2024-05-09T17:42:43.285Z,99030.50
2024-05-09T17:45:29.497Z,99033.87
2024-05-09T17:48:16.998Z,99034.83
2024-05-09T17:51:03.344Z,99037.17
2024-05-09T17:53:50.090Z,99043.84
2024-05-09T17:56:36.310Z,99046.33
2024-05-09T17:59:22.624Z,99049.20
2024-05-09T18:02:09.494Z,99050.66
2024-05-09T18:04:55.830Z,99051.95
2024-05-09T18:07:41.974Z,99052.16
2024-05-09T18:10:35.222Z,99051.70
2024-05-09T18:13:26.089Z,99049.69
2024-05-09T18:16:13.152Z,99052.37
2024-05-09T18:18:59.751Z,99053.13
2024-05-09T18:21:46.086Z,99055.08
2024-05-09T18:24:32.564Z,99056.01
2024-05-09T18:27:19.049Z,99057.63
2024-05-09T18:30:09.467Z,99060.10
2024-05-09T18:32:58.024Z,99061.54
2024-05-09T18:35:45.244Z,99065.09
2024-05-09T18:38:31.911Z,99070.35
2024-05-09T18:41:20.672Z,99068.66
2024-05-09T18:44:06.860Z,99073.03
2024-05-09T18:46:53.349Z,99076.52
2024-05-09T18:49:39.824Z,99078.47
2024-05-09T18:52:25.827Z,99079.89
2024-05-09T18:55:14.014Z,99084.55
2024-05-09T18:58:00.367Z,99088.69
2024-05-09T19:00:50.211Z,99090.95
2024-05-09T19:03:38.805Z,99098.75
2024-05-09T19:06:25.606Z,99095.29
2024-05-09T19:09:12.027Z,99102.55
2024-05-09T19:12:02.993Z,99101.34
2024-05-09T19:14:49.405Z,99102.20
2024-05-09T19:17:39.608Z,99104.80
2024-05-09T19:20:31.929Z,99109.80
2024-05-09T19:23:21.269Z,99112.23
2024-05-09T19:26:08.395Z,99110.13
2024-05-09T19:28:55.012Z,99119.98
2024-05-09T19:31:41.220Z,99127.08
2024-05-09T19:34:28.167Z,99132.07
2024-05-09T19:37:14.685Z,99135.47
2024-05-09T19:40:01.081Z,99141.20
2024-05-09T19:42:47.442Z,99140.39
2024-05-09T19:45:35.003Z,99141.84
2024-05-09T19:48:22.502Z,99143.20
2024-05-09T19:51:08.699Z,99145.96
2024-05-09T19:53:55.153Z,99145.13
2024-05-09T19:56:44.971Z,99142.52
2024-05-09T19:59:31.560Z,99140.47
2024-05-09T20:02:19.292Z,99144.95
2024-05-09T20:05:05.844Z,99146.00
2024-05-09T20:07:52.052Z,99147.55
2024-05-09T20:10:38.713Z,99145.81
2024-05-09T20:13:25.157Z,99144.23
2024-05-09T20:16:11.786Z,99149.03
2024-05-09T20:18:58.347Z,99144.15
2024-05-09T20:21:45.101Z,99146.19
2024-05-09T20:24:31.465Z,99143.08
2024-05-09T20:27:17.700Z,99141.64
2024-05-09T20:30:09.727Z,99145.13
2024-05-09T20:33:00.213Z,99140.08
2024-05-09T20:35:47.256Z,99139.88
2024-05-09T20:38:34.010Z,99140.53
2024-05-09T20:41:21.116Z,99138.92
2024-05-09T20:44:07.283Z,99136.83
2024-05-09T20:46:54.009Z,99135.93
2024-05-09T20:49:42.068Z,99137.16
2024-05-09T20:52:28.635Z,99136.54
2024-05-09T20:55:16.279Z,99135.64
2024-05-09T20:58:02.491Z,99138.83
2024-05-09T21:00:51.359Z,99135.91
2024-05-09T21:03:38.281Z,99134.73
2024-05-09T21:06:27.139Z,99132.84
2024-05-09T21:09:13.412Z,99131.81
2024-05-09T21:11:59.776Z,99135.20
2024-05-09T21:14:45.719Z,99139.10
2024-05-09T21:17:32.112Z,99142.15
2024-05-09T21:20:23.997Z,99139.04
2024-05-09T21:23:15.231Z,99139.69
2024-05-09T21:26:01.767Z,99141.05
2024-05-09T21:28:48.166Z,99139.30
2024-05-09T21:31:34.437Z,99141.11
2024-05-09T21:34:20.563Z,99137.24
2024-05-09T21:37:06.604Z,99140.98
2024-05-09T21:39:52.665Z,99140.91
2024-05-09T21:42:38.760Z,99144.60
2024-05-09T21:45:24.645Z,99144.77
2024-05-09T21:48:12.605Z,99143.16
2024-05-09T21:50:59.031Z,99145.13
2024-05-09T21:53:45.284Z,99142.69
2024-05-09T21:56:31.353Z,99142.86
2024-05-09T21:59:19.870Z,99143.70
2024-05-09T22:02:05.948Z,99140.68
2024-05-09T22:04:52.374Z,99140.05
2024-05-09T22:07:39.021Z,99138.22
2024-05-09T22:10:31.096Z,99139.82
2024-05-09T22:13:20.741Z,99143.02
2024-05-09T22:16:07.881Z,99142.52
2024-05-09T22:18:54.384Z,99141.85
2024-05-09T22:21:40.970Z,99139.05
2024-05-09T22:24:27.397Z,99136.73
2024-05-09T22:27:13.539Z,99132.82
2024-05-09T22:29:59.604Z,99134.27
2024-05-09T22:32:49.806Z,99131.42
2024-05-09T22:35:35.902Z,99133.09
2024-05-09T22:38:21.960Z,99136.64
2024-05-09T22:41:09.371Z,99134.42
2024-05-09T22:43:55.613Z,99135.48
2024-05-09T22:46:41.761Z,99131.22
2024-05-09T22:49:29.462Z,99130.73
2024-05-09T22:52:15.915Z,99131.50
2024-05-09T22:55:01.943Z,99131.38
2024-05-09T22:57:48.374Z,99130.71
2024-05-09T23:00:34.963Z,99127.30
2024-05-09T23:03:22.655Z,99130.09
2024-05-09T23:06:08.974Z,99130.36
2024-05-09T23:08:55.088Z,99131.38
2024-05-09T23:11:42.035Z,99130.10
2024-05-09T23:14:28.353Z,99131.59
2024-05-09T23:17:14.510Z,99129.91
2024-05-09T23:20:00.539Z,99127.52
2024-05-09T23:22:46.438Z,99128.73
2024-05-09T23:25:33.144Z,99123.44
2024-05-09T23:28:19.379Z,99121.07
2024-05-09T23:31:05.504Z,99123.66
2024-05-09T23:33:51.953Z,99121.76
2024-05-09T23:36:38.670Z,99122.21
2024-05-09T23:39:24.758Z,99120.77
2024-05-09T23:42:10.866Z,99123.02
2024-05-09T23:44:58.224Z,99118.90
2024-05-09T23:47:45.923Z,99120.80
2024-05-09T23:50:36.122Z,99114.14
2024-05-09T23:53:24.671Z,99110.67
2024-05-09T23:56:15.630Z,99110.91
2024-05-09T23:59:01.876Z,99108.77
